Terminal Aerodrome Forecast
Issued by NWS Albany, NY

Home | Current Version | Previous Version | Text Only | Print | Product List | Glossary On
Versions: 1 2 3 4 5 6 7 8 9 10 11 12 13 14 15 16 17 18 19
000
FTUS41 KALY 031720
TAFGFL
TAF
KGFL 031720Z 0318/0418 16007KT P6SM SCT100 OVC250
     FM032000 16007KT P6SM VCSH OVC060
     FM032200 17008KT 1SM -SN BR OVC015
     FM040000 19006KT 1SM -SN BR OVC008
     FM040400 19006KT 2SM -SN BR OVC008 PROB30 0404/0407 2SM -FZRAPL
     FM040700 19007KT 3SM BR VCSH OVC015
     FM041200 22007KT P6SM OVC050=

USA.gov is the U.S. government's official web portal to all federal, state and local government web resources and services.